Time;durP1;ratioP1;P1;durP2;ratioP2;P2;SDS_P1;SDS_P2;PMS_P1;PMS_P2;Temp;Humidity;BMP_temperature;BMP_pressure;BME280_temperature;BME280_humidity;BME280_pressure;Samples;Min_cycle;Max_cycle;Signal;HPM_P1;HPM_P2
2023/11/10 00:01:51;;;;;;;1.70;0.40;;;10.80;1.00;;;;;;5006691;28;20895;-85
2023/11/10 00:04:19;;;;;;;0.70;0.30;;;10.90;1.00;;;;;;5022063;28;20443;-85
2023/11/10 00:06:50;;;;;;;0.90;0.32;;;10.50;1.00;;;;;;5009098;28;20407;-87
2023/11/10 00:09:18;;;;;;;1.10;0.60;;;9.90;1.00;;;;;;5024602;28;20469;-87
2023/11/10 00:11:45;;;;;;;1.25;0.82;;;11.60;1.00;;;;;;5010517;28;20429;-87
2023/11/10 00:14:11;;;;;;;1.25;0.57;;;9.70;1.00;;;;;;5018354;28;20400;-86
2023/11/10 00:16:45;;;;;;;1.60;0.40;;;9.10;1.00;;;;;;5015523;28;20385;-87
2023/11/10 00:19:13;;;;;;;1.87;0.40;;;9.30;1.00;;;;;;4992976;28;20418;-84
2023/11/10 00:21:39;;;;;;;1.15;0.40;;;11.80;1.00;;;;;;5016411;28;20400;-84
2023/11/10 00:24:05;;;;;;;1.40;0.50;;;13.70;1.00;;;;;;5002052;28;20397;-85
2023/11/10 00:26:34;;;;;;;0.90;0.30;;;9.00;1.00;;;;;;5031992;28;20418;-85
2023/11/10 00:29:00;;;;;;;0.60;0.60;;;9.00;1.00;;;;;;5000782;28;20900;-85
2023/11/10 00:31:25;;;;;;;0.50;0.40;;;8.90;1.00;;;;;;5015343;28;20499;-85
2023/11/10 00:33:51;;;;;;;1.20;0.40;;;8.90;1.00;;;;;;4998758;28;20396;-85
2023/11/10 00:36:17;;;;;;;0.80;0.50;;;8.90;1.00;;;;;;4998342;28;20401;-85
2023/11/10 00:38:46;;;;;;;1.10;0.40;;;8.90;1.00;;;;;;4999780;28;20397;-85
2023/11/10 00:41:13;;;;;;;0.50;0.30;;;8.80;1.00;;;;;;4999358;28;20396;-86
2023/11/10 00:43:38;;;;;;;1.25;0.30;;;8.80;1.00;;;;;;5024362;28;20401;-85
2023/11/10 00:46:06;;;;;;;1.20;0.40;;;8.70;1.00;;;;;;5001122;28;20488;-85
2023/11/10 00:48:32;;;;;;;1.30;0.70;;;8.70;1.00;;;;;;4999219;28;20426;-84
2023/11/10 00:50:57;;;;;;;1.88;0.40;;;8.60;1.00;;;;;;5015555;28;20408;-85
2023/11/10 00:53:26;;;;;;;0.90;0.40;;;8.70;1.00;;;;;;4999171;28;20745;-84
2023/11/10 00:55:53;;;;;;;0.87;0.50;;;8.70;1.00;;;;;;4998079;28;20482;-85
2023/11/10 00:58:19;;;;;;;0.50;0.30;;;8.60;1.00;;;;;;4997888;28;20800;-84
2023/11/10 01:00:45;;;;;;;0.90;0.40;;;8.70;1.00;;;;;;5018780;28;20393;-85
2023/11/10 01:03:11;;;;;;;0.60;0.40;;;8.70;1.00;;;;;;5014344;28;20425;-86
2023/11/10 01:05:36;;;;;;;0.90;0.30;;;8.80;1.00;;;;;;4996914;28;20396;-88
2023/11/10 01:08:02;;;;;;;0.47;0.30;;;8.80;1.00;;;;;;5015744;28;20384;-85
2023/11/10 01:10:27;;;;;;;1.70;0.35;;;8.80;1.00;;;;;;5015587;28;20416;-87
2023/11/10 01:12:53;;;;;;;0.60;0.30;;;8.80;1.00;;;;;;5014468;28;20404;-89
2023/11/10 01:15:20;;;;;;;0.43;0.30;;;8.80;1.00;;;;;;4997357;28;20389;-88
2023/11/10 01:17:47;;;;;;;0.50;0.40;;;8.40;1.00;;;;;;4996708;28;20488;-86
2023/11/10 01:20:13;;;;;;;0.70;0.40;;;8.70;1.00;;;;;;5014683;28;20481;-87
2023/11/10 01:22:42;;;;;;;0.55;0.30;;;8.40;1.00;;;;;;4996443;28;20396;-86
2023/11/10 01:25:08;;;;;;;1.27;0.60;;;8.20;1.00;;;;;;4996459;28;20427;-85
2023/11/10 01:27:34;;;;;;;1.10;0.40;;;8.40;1.00;;;;;;4997434;28;20450;-85
2023/11/10 01:30:00;;;;;;;0.90;0.50;;;8.30;1.00;;;;;;4997525;28;20439;-85
2023/11/10 01:32:26;;;;;;;0.50;0.30;;;8.30;1.00;;;;;;5014216;28;20422;-83
2023/11/10 01:34:51;;;;;;;1.65;0.50;;;8.30;1.00;;;;;;5018178;28;20392;-84
2023/11/10 01:37:17;;;;;;;1.58;0.57;;;8.20;1.00;;;;;;5015052;28;20507;-84
2023/11/10 01:39:43;;;;;;;0.40;0.30;;;8.20;1.00;;;;;;4996926;28;20401;-84
2023/11/10 01:42:09;;;;;;;0.90;0.40;;;8.00;1.00;;;;;;4998119;28;20396;-84
2023/11/10 01:44:35;;;;;;;0.90;0.40;;;7.90;1.00;;;;;;4999163;28;20404;-86
2023/11/10 01:47:06;;;;;;;0.70;0.30;;;8.00;1.00;;;;;;4996731;28;20771;-85
2023/11/10 01:49:33;;;;;;;0.70;0.43;;;7.80;1.00;;;;;;4997006;28;20450;-84
2023/11/10 01:51:59;;;;;;;0.65;0.30;;;7.80;1.00;;;;;;5013753;28;20413;-84
2023/11/10 01:54:34;;;;;;;1.25;0.40;;;7.80;1.00;;;;;;4995851;28;20799;-84
2023/11/10 01:57:00;;;;;;;0.70;0.50;;;7.70;1.00;;;;;;5018223;28;20411;-85
2023/11/10 01:59:26;;;;;;;0.50;0.38;;;7.70;1.00;;;;;;5015489;28;20420;-84
2023/11/10 02:01:52;;;;;;;0.40;0.30;;;7.60;1.00;;;;;;5014107;28;20397;-86
2023/11/10 02:04:17;;;;;;;0.90;0.40;;;7.40;1.00;;;;;;4998313;28;20399;-84
2023/11/10 02:06:44;;;;;;;0.70;0.30;;;7.60;1.00;;;;;;4996732;28;20459;-85
2023/11/10 02:09:10;;;;;;;0.50;0.30;;;7.40;1.00;;;;;;4996209;28;20397;-86
2023/11/10 02:11:39;;;;;;;0.68;0.40;;;7.60;1.00;;;;;;4995658;28;20413;-85
2023/11/10 02:14:07;;;;;;;0.65;0.30;;;7.60;1.00;;;;;;4994822;28;20396;-84
2023/11/10 02:16:33;;;;;;;0.50;0.38;;;7.60;1.00;;;;;;4995533;28;20812;-84
2023/11/10 02:18:59;;;;;;;0.70;0.40;;;7.60;1.00;;;;;;4995546;28;20421;-83
2023/11/10 02:21:25;;;;;;;0.40;0.30;;;7.60;1.00;;;;;;4996036;28;20903;-84
2023/11/10 02:23:55;;;;;;;2.70;0.65;;;7.50;1.00;;;;;;5001515;28;20797;-84
2023/11/10 02:26:21;;;;;;;0.90;0.50;;;7.60;1.00;;;;;;5016703;28;20381;-84
2023/11/10 02:28:46;;;;;;;0.63;0.30;;;7.60;1.00;;;;;;5033569;28;20427;-85
2023/11/10 02:31:12;;;;;;;0.90;0.50;;;7.70;1.00;;;;;;5019823;28;20420;-85
2023/11/10 02:33:39;;;;;;;0.80;0.50;;;7.70;1.00;;;;;;5013138;28;20411;-84
2023/11/10 02:36:06;;;;;;;2.50;0.50;;;7.60;1.00;;;;;;4995837;28;20411;-85
2023/11/10 02:38:32;;;;;;;1.13;0.70;;;7.70;1.00;;;;;;5012834;28;20397;-86
2023/11/10 02:40:57;;;;;;;2.45;0.40;;;7.60;1.00;;;;;;4995052;28;20417;-86
2023/11/10 02:43:23;;;;;;;1.30;0.50;;;7.70;1.00;;;;;;5012984;28;20416;-85
2023/11/10 02:45:48;;;;;;;2.08;0.43;;;7.70;1.00;;;;;;5013074;28;20412;-85
2023/11/10 02:48:14;;;;;;;2.60;0.40;;;7.60;1.00;;;;;;5012973;28;20900;-85
2023/11/10 02:50:41;;;;;;;1.10;0.40;;;7.80;1.00;;;;;;4995335;28;20409;-85
2023/11/10 02:53:06;;;;;;;1.30;0.40;;;7.80;1.00;;;;;;4995601;28;20404;-85
2023/11/10 02:55:32;;;;;;;2.08;0.38;;;7.80;1.00;;;;;;4996066;28;20400;-86
2023/11/10 02:57:57;;;;;;;1.30;0.35;;;7.70;1.00;;;;;;5010522;28;20392;-86
2023/11/10 03:00:23;;;;;;;0.60;0.40;;;7.90;1.00;;;;;;4996206;28;20455;-88
2023/11/10 03:03:14;;;;;;;1.00;0.40;;;8.00;1.00;;;;;;4996096;28;20411;-90
2023/11/10 03:06:34;;;;;;;0.80;0.40;;;7.40;1.00;;;;;;4989907;28;20811;-90
2023/11/10 03:09:01;;;;;;;1.13;0.40;;;7.80;1.00;;;;;;4982083;28;20447;-88
2023/11/10 03:11:27;;;;;;;3.40;0.57;;;7.70;1.00;;;;;;4994033;28;20428;-89
2023/11/10 03:13:57;;;;;;;1.20;0.40;;;8.30;1.00;;;;;;4994540;28;20951;-89
2023/11/10 03:16:23;;;;;;;1.70;0.50;;;8.00;1.00;;;;;;4994797;28;20425;-88
2023/11/10 03:18:52;;;;;;;1.10;0.63;;;7.90;1.00;;;;;;4995604;28;20420;-90
2023/11/10 03:21:24;;;;;;;2.00;0.40;;;7.90;1.00;;;;;;4994601;28;20956;-89
2023/11/10 03:23:50;;;;;;;0.50;0.30;;;7.90;1.00;;;;;;4994900;28;20916;-88
2023/11/10 03:26:16;;;;;;;0.50;0.30;;;9.00;1.00;;;;;;4999444;28;20570;-88
2023/11/10 03:28:43;;;;;;;1.25;0.40;;;9.40;1.00;;;;;;5001821;28;20416;-88
2023/11/10 03:31:09;;;;;;;0.70;0.30;;;7.10;1.00;;;;;;5013592;28;20480;-88
2023/11/10 03:33:35;;;;;;;0.40;0.30;;;8.00;1.00;;;;;;4995422;28;20401;-87
2023/11/10 03:36:03;;;;;;;0.40;0.30;;;7.90;1.00;;;;;;4995686;28;20389;-87
2023/11/10 03:38:28;;;;;;;0.70;0.30;;;8.20;1.00;;;;;;5012568;28;20473;-87
2023/11/10 03:40:54;;;;;;;0.50;0.30;;;8.00;1.00;;;;;;5013001;28;20401;-87
2023/11/10 03:43:20;;;;;;;0.50;0.30;;;8.10;1.00;;;;;;4994544;28;20400;-86
2023/11/10 03:45:46;;;;;;;0.40;0.30;;;8.00;1.00;;;;;;4994863;28;20399;-88
2023/11/10 03:48:12;;;;;;;0.40;0.30;;;8.20;1.00;;;;;;5012533;28;20725;-86
2023/11/10 03:50:39;;;;;;;0.70;0.30;;;8.20;1.00;;;;;;5012953;28;20498;-87
2023/11/10 03:53:04;;;;;;;0.40;0.20;;;8.30;1.00;;;;;;5004413;28;20392;-88
2023/11/10 03:55:30;;;;;;;0.40;0.20;;;7.70;1.00;;;;;;5019195;28;20409;-86
2023/11/10 03:57:55;;;;;;;0.40;0.20;;;8.10;1.00;;;;;;5019222;28;20432;-86
2023/11/10 04:00:22;;;;;;;0.40;0.30;;;8.20;1.00;;;;;;5018687;28;20415;-87
2023/11/10 04:02:48;;;;;;;0.70;0.30;;;8.30;1.00;;;;;;5014442;28;20958;-85
2023/11/10 04:05:13;;;;;;;0.60;0.20;;;8.40;1.00;;;;;;5018558;28;20401;-86
2023/11/10 04:07:39;;;;;;;0.40;0.20;;;9.60;1.00;;;;;;5017479;28;20435;-87
2023/11/10 04:10:05;;;;;;;0.60;0.30;;;8.20;1.00;;;;;;5007624;28;20492;-87
2023/11/10 04:12:32;;;;;;;0.50;0.30;;;8.40;1.00;;;;;;4998680;28;20482;-86
2023/11/10 04:14:58;;;;;;;0.40;0.30;;;8.40;1.00;;;;;;5033897;28;20389;-87
2023/11/10 04:17:24;;;;;;;0.80;0.30;;;8.20;1.00;;;;;;5002968;28;20403;-87
2023/11/10 04:19:52;;;;;;;0.77;0.30;;;8.30;1.00;;;;;;5013950;28;20400;-88
2023/11/10 04:22:18;;;;;;;0.40;0.20;;;8.40;1.00;;;;;;5025970;28;20471;-87
2023/11/10 04:24:43;;;;;;;0.50;0.30;;;7.90;1.00;;;;;;4997525;28;20407;-86
2023/11/10 04:27:09;;;;;;;1.10;0.30;;;7.80;1.00;;;;;;4997881;28;20804;-85
2023/11/10 04:29:36;;;;;;;0.40;0.30;;;8.30;1.00;;;;;;4997619;28;20511;-87
2023/11/10 04:32:05;;;;;;;0.50;0.30;;;8.60;1.00;;;;;;4997865;28;20800;-85
2023/11/10 04:34:30;;;;;;;0.40;0.20;;;8.60;1.00;;;;;;4997744;28;21101;-87
2023/11/10 04:36:56;;;;;;;0.40;0.30;;;8.30;1.00;;;;;;4997677;28;20393;-89
2023/11/10 04:39:23;;;;;;;2.10;0.30;;;8.70;1.00;;;;;;4997778;28;20407;-87
2023/11/10 04:41:54;;;;;;;0.50;0.30;;;8.50;1.00;;;;;;4996807;28;20459;-90
2023/11/10 04:44:20;;;;;;;0.50;0.30;;;8.90;1.00;;;;;;4993223;28;20400;-88
2023/11/10 04:46:45;;;;;;;1.03;0.33;;;8.40;1.00;;;;;;5012096;28;20407;-86
2023/11/10 04:49:11;;;;;;;0.50;0.30;;;8.60;1.00;;;;;;4993430;28;20393;-86
2023/11/10 04:51:37;;;;;;;0.50;0.30;;;8.60;1.00;;;;;;4994840;28;20499;-87
2023/11/10 04:54:03;;;;;;;0.40;0.30;;;8.60;1.00;;;;;;4991470;28;20955;-87
2023/11/10 04:56:29;;;;;;;0.80;0.40;;;10.20;1.00;;;;;;4986410;28;20837;-86
2023/11/10 04:58:55;;;;;;;0.50;0.30;;;8.60;1.00;;;;;;5007285;28;20509;-87
2023/11/10 05:01:20;;;;;;;0.80;0.30;;;8.50;1.00;;;;;;4987154;28;20408;-86
2023/11/10 05:03:46;;;;;;;0.70;0.32;;;8.70;1.00;;;;;;4990647;28;20438;-86
2023/11/10 05:06:11;;;;;;;0.90;0.30;;;8.80;1.00;;;;;;4992985;28;20393;-87
2023/11/10 05:08:37;;;;;;;0.50;0.40;;;7.50;1.00;;;;;;5031871;28;20395;-88
2023/11/10 05:11:04;;;;;;;0.50;0.40;;;8.60;1.00;;;;;;5023829;28;20415;-86
2023/11/10 05:13:29;;;;;;;1.13;0.30;;;8.80;1.00;;;;;;5014243;28;20409;-85
2023/11/10 05:15:55;;;;;;;1.15;0.30;;;8.80;1.00;;;;;;4997729;28;20408;-87
2023/11/10 05:18:26;;;;;;;1.20;0.30;;;8.80;1.00;;;;;;5018547;28;20467;-86
2023/11/10 05:20:53;;;;;;;0.50;0.30;;;8.70;1.00;;;;;;5023053;28;20428;-88
2023/11/10 05:23:18;;;;;;;0.50;0.40;;;8.70;1.00;;;;;;4997242;28;20397;-87
2023/11/10 05:25:44;;;;;;;1.10;0.30;;;8.00;1.00;;;;;;4995770;28;20427;-87
2023/11/10 05:28:09;;;;;;;0.50;0.50;;;8.60;1.00;;;;;;5007317;28;20409;-86
2023/11/10 05:30:35;;;;;;;0.50;0.30;;;8.70;1.00;;;;;;5005272;28;20498;-88
2023/11/10 05:33:00;;;;;;;0.90;0.40;;;8.70;1.00;;;;;;5005946;28;20402;-88
2023/11/10 05:35:26;;;;;;;1.50;1.00;;;8.70;1.00;;;;;;4996383;28;20393;-85
2023/11/10 05:37:52;;;;;;;0.70;0.30;;;8.70;1.00;;;;;;4999570;28;20426;-86
2023/11/10 05:40:17;;;;;;;0.40;0.30;;;8.70;1.00;;;;;;5013417;28;20510;-87
2023/11/10 05:42:43;;;;;;;0.50;0.30;;;8.80;1.00;;;;;;5014753;28;20395;-87
2023/11/10 05:45:09;;;;;;;0.95;0.35;;;8.60;1.00;;;;;;5014347;28;20488;-86
2023/11/10 05:47:34;;;;;;;0.50;0.30;;;8.80;1.00;;;;;;5014610;28;20377;-87
2023/11/10 05:50:00;;;;;;;0.70;0.50;;;8.70;1.00;;;;;;4996874;28;20408;-87
2023/11/10 05:52:31;;;;;;;0.93;0.50;;;7.60;1.00;;;;;;4997619;28;20413;-88
2023/11/10 05:54:58;;;;;;;0.70;0.40;;;7.10;1.00;;;;;;4999316;28;20385;-86
2023/11/10 05:57:24;;;;;;;1.20;0.40;;;7.80;1.00;;;;;;4997788;28;20919;-88
2023/11/10 05:59:50;;;;;;;1.20;0.30;;;8.10;1.00;;;;;;4996007;28;20393;-87
2023/11/10 06:02:17;;;;;;;0.60;0.40;;;7.60;1.00;;;;;;5022035;28;20392;-86
2023/11/10 06:04:44;;;;;;;0.95;0.50;;;8.10;1.00;;;;;;5029583;28;21058;-85
2023/11/10 06:07:11;;;;;;;0.70;0.50;;;8.20;1.00;;;;;;5015799;28;20423;-86
2023/11/10 06:09:37;;;;;;;1.50;0.40;;;8.00;1.00;;;;;;5013892;28;20491;-85
2023/11/10 06:12:04;;;;;;;0.90;0.50;;;7.90;1.00;;;;;;4997290;28;20417;-87
2023/11/10 06:14:30;;;;;;;0.60;0.40;;;8.30;1.00;;;;;;5014822;28;20947;-85
2023/11/10 06:16:56;;;;;;;1.50;0.40;;;8.30;1.00;;;;;;4998503;28;20484;-85
2023/11/10 06:19:21;;;;;;;1.00;0.50;;;8.20;1.00;;;;;;4997022;28;20492;-84
2023/11/10 06:21:47;;;;;;;0.70;0.40;;;8.40;1.00;;;;;;4997314;28;20411;-84
2023/11/10 06:24:13;;;;;;;0.90;0.40;;;8.40;1.00;;;;;;4997825;28;20473;-88
2023/11/10 06:26:39;;;;;;;1.35;0.60;;;8.30;1.00;;;;;;5017217;28;20397;-83
2023/11/10 06:29:05;;;;;;;1.20;0.40;;;8.40;1.00;;;;;;5015076;28;20395;-85
2023/11/10 06:31:31;;;;;;;1.10;0.40;;;7.90;1.00;;;;;;4996158;28;20416;-86
2023/11/10 06:33:56;;;;;;;0.90;0.50;;;8.40;1.00;;;;;;4998490;28;20396;-84
2023/11/10 06:36:22;;;;;;;1.30;0.40;;;8.40;1.00;;;;;;5015203;28;20400;-86
2023/11/10 06:38:47;;;;;;;0.60;0.50;;;8.50;1.00;;;;;;4996741;28;20408;-86
2023/11/10 06:41:14;;;;;;;0.60;0.30;;;8.50;1.00;;;;;;4995890;28;20455;-85
2023/11/10 06:43:42;;;;;;;2.50;0.40;;;8.40;1.00;;;;;;5023287;28;20846;-86
2023/11/10 06:46:17;;;;;;;1.17;0.40;;;8.40;1.00;;;;;;4997398;28;20420;-86
2023/11/10 06:48:43;;;;;;;0.60;0.40;;;8.50;1.00;;;;;;4995074;28;20765;-86
2023/11/10 06:51:08;;;;;;;1.10;0.30;;;9.40;1.00;;;;;;4995542;28;20421;-87
2023/11/10 06:53:34;;;;;;;0.70;0.40;;;8.60;1.00;;;;;;4997068;28;20431;-86
2023/11/10 06:55:59;;;;;;;0.50;0.40;;;8.50;1.00;;;;;;4996544;28;20436;-86
2023/11/10 06:58:25;;;;;;;0.60;0.30;;;8.50;1.00;;;;;;5015872;28;20434;-86
2023/11/10 07:00:51;;;;;;;1.20;0.60;;;9.40;1.00;;;;;;4998022;28;20429;-85
2023/11/10 07:03:18;;;;;;;1.10;0.40;;;8.60;1.00;;;;;;4997469;28;20500;-85
2023/11/10 07:05:44;;;;;;;1.30;0.40;;;8.30;1.00;;;;;;5016296;28;20393;-86
2023/11/10 07:08:10;;;;;;;0.60;0.50;;;8.40;1.00;;;;;;5013333;28;20389;-85
2023/11/10 07:10:41;;;;;;;0.85;0.50;;;8.40;1.00;;;;;;5016491;28;20407;-86
2023/11/10 07:13:14;;;;;;;2.23;0.50;;;9.20;1.00;;;;;;5017201;28;20444;-85
2023/11/10 07:15:39;;;;;;;1.50;0.50;;;8.60;1.00;;;;;;5003265;28;20451;-86
2023/11/10 07:18:06;;;;;;;2.00;0.60;;;8.50;1.00;;;;;;5001101;28;20393;-85
2023/11/10 07:20:31;;;;;;;1.33;0.50;;;8.60;1.00;;;;;;4999027;28;20447;-85
2023/11/10 07:23:00;;;;;;;1.53;0.50;;;8.70;1.00;;;;;;4998979;28;20396;-86
2023/11/10 07:25:27;;;;;;;1.30;0.50;;;8.70;1.00;;;;;;4996155;28;20958;-85
2023/11/10 07:27:54;;;;;;;1.35;0.70;;;8.70;1.00;;;;;;5025328;28;20416;-86
2023/11/10 07:30:20;;;;;;;0.88;0.50;;;8.70;1.00;;;;;;4998318;28;20397;-86
2023/11/10 07:32:46;;;;;;;0.85;0.50;;;8.70;1.00;;;;;;4996998;28;20401;-85
2023/11/10 07:35:13;;;;;;;1.30;0.60;;;9.80;1.00;;;;;;4997060;28;20396;-85
2023/11/10 07:37:40;;;;;;;1.40;0.60;;;8.70;1.00;;;;;;5013149;28;20424;-85
2023/11/10 07:40:08;;;;;;;2.37;0.67;;;8.80;1.00;;;;;;4996649;28;20397;-86
2023/11/10 07:42:36;;;;;;;0.80;0.60;;;8.80;1.00;;;;;;5014105;28;20467;-85
2023/11/10 07:45:01;;;;;;;2.10;0.50;;;8.70;1.00;;;;;;5014510;28;20388;-85
2023/11/10 07:47:28;;;;;;;1.15;0.50;;;8.60;1.00;;;;;;4995821;28;20392;-85
2023/11/10 07:49:54;;;;;;;2.38;0.60;;;8.80;1.00;;;;;;4995915;28;20393;-85
2023/11/10 07:52:20;;;;;;;1.10;0.50;;;8.70;1.00;;;;;;4995037;28;20412;-86
2023/11/10 07:54:45;;;;;;;0.93;0.70;;;9.10;1.00;;;;;;4995741;28;20920;-85
2023/11/10 07:57:11;;;;;;;0.60;0.50;;;8.70;1.00;;;;;;5013316;28;20811;-85
2023/11/10 07:59:37;;;;;;;1.90;0.70;;;8.70;1.00;;;;;;5016941;28;20436;-86
2023/11/10 08:02:02;;;;;;;2.60;0.90;;;8.70;1.00;;;;;;5016120;28;20392;-86
2023/11/10 08:04:28;;;;;;;2.00;0.80;;;8.60;1.00;;;;;;5016649;28;20431;-87
2023/11/10 08:06:54;;;;;;;1.50;0.70;;;8.80;1.00;;;;;;5029388;23;20447;-84
2023/11/10 08:09:22;;;;;;;2.50;0.90;;;7.70;1.00;;;;;;5025490;28;20392;-84
2023/11/10 08:11:49;;;;;;;1.20;0.50;;;8.70;1.00;;;;;;5036708;28;20482;-86
2023/11/10 08:14:14;;;;;;;2.03;0.73;;;8.70;1.00;;;;;;5025199;28;20484;-83
2023/11/10 08:16:42;;;;;;;1.50;0.60;;;8.60;1.00;;;;;;5015559;28;20391;-85
2023/11/10 08:19:10;;;;;;;0.97;0.70;;;8.30;1.00;;;;;;5003946;28;20406;-85
2023/11/10 08:21:35;;;;;;;0.98;0.50;;;8.80;1.00;;;;;;5003107;28;20445;-84
2023/11/10 08:24:01;;;;;;;1.33;0.70;;;8.80;1.00;;;;;;5003837;28;20398;-86
2023/11/10 08:26:26;;;;;;;1.20;0.50;;;8.80;1.00;;;;;;5002508;28;20402;-86
2023/11/10 08:28:52;;;;;;;1.55;0.80;;;8.90;1.00;;;;;;5014140;28;20431;-86
2023/11/10 08:31:18;;;;;;;3.20;0.70;;;9.00;1.00;;;;;;5022356;28;20435;-85
2023/11/10 08:33:46;;;;;;;1.38;0.70;;;9.10;1.00;;;;;;5036938;28;20393;-86
2023/11/10 08:36:12;;;;;;;1.85;0.80;;;8.80;1.00;;;;;;5021414;28;20392;-84
2023/11/10 08:38:37;;;;;;;1.30;0.70;;;9.00;1.00;;;;;;5019976;28;20404;-83
2023/11/10 08:41:04;;;;;;;1.27;0.60;;;8.90;1.00;;;;;;5018738;28;20530;-83
2023/11/10 08:43:29;;;;;;;1.60;0.70;;;8.90;1.00;;;;;;5011269;28;20402;-83
2023/11/10 08:45:55;;;;;;;0.77;0.50;;;8.70;1.00;;;;;;4997059;28;20390;-82
2023/11/10 08:48:20;;;;;;;1.90;0.60;;;8.50;1.00;;;;;;5000144;28;20436;-81
2023/11/10 08:50:46;;;;;;;1.20;0.70;;;8.50;1.00;;;;;;5009828;28;20883;-82
2023/11/10 08:53:11;;;;;;;1.77;0.60;;;8.50;1.00;;;;;;5012753;28;20407;-81
2023/11/10 08:55:40;;;;;;;2.10;0.90;;;8.60;1.00;;;;;;5018612;28;20377;-80
2023/11/10 08:58:05;;;;;;;1.50;0.82;;;8.50;1.00;;;;;;5018287;28;20868;-81
2023/11/10 09:00:31;;;;;;;1.50;0.77;;;8.50;1.00;;;;;;5007951;28;20405;-80
2023/11/10 09:02:57;;;;;;;0.90;0.70;;;8.50;1.00;;;;;;5016205;28;20395;-81
2023/11/10 09:05:22;;;;;;;1.90;0.80;;;8.50;1.00;;;;;;5016307;28;20399;-81
2023/11/10 09:07:48;;;;;;;2.10;0.93;;;8.50;1.00;;;;;;5015861;28;20419;-81
2023/11/10 09:10:14;;;;;;;3.10;1.20;;;8.50;1.00;;;;;;5009628;28;20871;-81
2023/11/10 09:12:42;;;;;;;1.58;0.70;;;8.40;1.00;;;;;;5015004;28;20885;-82
2023/11/10 09:15:11;;;;;;;1.00;0.90;;;8.40;1.00;;;;;;5017166;28;20385;-83
2023/11/10 09:17:37;;;;;;;1.50;1.30;;;8.40;1.00;;;;;;5016896;28;20399;-84
2023/11/10 09:20:02;;;;;;;1.23;0.70;;;8.50;1.00;;;;;;5016182;28;20397;-84
2023/11/10 09:22:28;;;;;;;2.30;1.00;;;8.50;1.00;;;;;;5017238;28;20443;-83
2023/11/10 09:24:53;;;;;;;1.70;1.10;;;8.50;1.00;;;;;;5017102;28;20396;-84
2023/11/10 09:27:19;;;;;;;1.00;0.70;;;8.50;1.00;;;;;;5015816;28;20404;-85
2023/11/10 09:29:45;;;;;;;2.40;0.70;;;8.50;1.00;;;;;;5005924;28;21158;-82
2023/11/10 09:32:10;;;;;;;1.50;0.70;;;8.50;1.00;;;;;;5012711;28;20919;-83
2023/11/10 09:34:39;;;;;;;1.70;0.70;;;8.60;1.00;;;;;;5009966;28;20414;-84
2023/11/10 09:37:06;;;;;;;2.00;0.60;;;8.50;1.00;;;;;;4997383;28;20393;-82
2023/11/10 09:39:32;;;;;;;1.60;0.70;;;8.70;1.00;;;;;;5005413;28;20412;-83
2023/11/10 09:42:08;;;;;;;1.20;0.80;;;8.70;1.00;;;;;;5016387;28;20487;-82
2023/11/10 09:44:40;;;;;;;0.80;0.40;;;8.70;1.00;;;;;;5001248;28;20767;-82
2023/11/10 09:47:08;;;;;;;0.90;0.40;;;8.70;1.00;;;;;;4995261;28;20936;-83
2023/11/10 09:49:34;;;;;;;0.50;0.50;;;8.70;1.00;;;;;;4998972;28;20444;-83
2023/11/10 09:52:02;;;;;;;1.00;0.45;;;8.60;1.00;;;;;;4995647;28;20414;-83
2023/11/10 09:54:29;;;;;;;1.02;0.40;;;8.20;1.00;;;;;;5000845;28;20401;-83
2023/11/10 09:56:57;;;;;;;0.70;0.40;;;8.80;1.00;;;;;;5001870;28;20875;-82
2023/11/10 09:59:27;;;;;;;1.40;0.55;;;9.00;1.00;;;;;;5025212;28;20500;-83
2023/11/10 10:01:53;;;;;;;0.77;0.45;;;9.20;1.00;;;;;;5029705;28;20965;-85
2023/11/10 10:04:19;;;;;;;1.33;0.50;;;9.30;1.00;;;;;;5027297;28;20435;-82
2023/11/10 10:06:51;;;;;;;1.45;0.60;;;9.20;1.00;;;;;;5026868;28;20400;-84
2023/11/10 10:09:18;;;;;;;1.88;0.70;;;9.30;1.00;;;;;;5016232;28;20928;-84
2023/11/10 10:11:45;;;;;;;1.48;0.70;;;9.40;1.00;;;;;;5032044;28;20404;-85
2023/11/10 10:14:12;;;;;;;1.35;0.70;;;9.50;1.00;;;;;;5029943;28;20427;-84
2023/11/10 10:16:38;;;;;;;2.25;0.60;;;9.40;1.00;;;;;;5024194;28;20384;-81
2023/11/10 10:19:04;;;;;;;1.52;0.90;;;9.40;1.00;;;;;;5020647;28;20496;-82
2023/11/10 10:21:40;;;;;;;1.67;0.52;;;9.70;1.00;;;;;;5018999;28;20388;-82
2023/11/10 10:24:06;;;;;;;1.55;0.70;;;9.50;1.00;;;;;;5013124;28;20394;-83
2023/11/10 10:26:33;;;;;;;2.25;0.77;;;9.50;1.00;;;;;;5002030;28;20418;-82
2023/11/10 10:29:00;;;;;;;2.22;0.90;;;9.60;1.00;;;;;;4999601;28;20485;-83
2023/11/10 10:31:27;;;;;;;2.38;0.80;;;9.40;1.00;;;;;;5010833;28;20451;-81
2023/11/10 10:33:55;;;;;;;1.83;0.60;;;9.40;1.00;;;;;;5019288;28;20400;-83
2023/11/10 10:36:20;;;;;;;1.63;0.98;;;9.20;1.00;;;;;;5019175;28;20883;-83
2023/11/10 10:38:51;;;;;;;2.63;0.73;;;9.40;1.00;;;;;;5016049;28;20430;-84
2023/11/10 10:41:19;;;;;;;1.80;0.60;;;9.30;1.00;;;;;;5000004;28;20449;-83
2023/11/10 10:43:50;;;;;;;1.10;0.60;;;9.30;1.00;;;;;;5000144;28;20422;-83
2023/11/10 10:46:16;;;;;;;1.47;0.70;;;9.40;1.00;;;;;;4998021;28;20448;-83
2023/11/10 10:48:43;;;;;;;2.17;0.80;;;9.50;1.00;;;;;;5000298;28;20436;-82
2023/11/10 10:51:09;;;;;;;1.40;1.00;;;9.50;1.00;;;;;;4997985;28;20410;-83
2023/11/10 10:53:36;;;;;;;1.30;0.80;;;9.50;1.00;;;;;;5001439;28;20976;-82
2023/11/10 10:56:03;;;;;;;1.88;0.75;;;9.60;1.00;;;;;;4999948;28;20443;-82
2023/11/10 10:58:31;;;;;;;1.88;0.88;;;10.00;1.00;;;;;;5001098;28;20398;-82
2023/11/10 11:00:59;;;;;;;3.40;1.20;;;10.50;1.00;;;;;;4996068;28;20398;-80
2023/11/10 11:03:33;;;;;;;1.90;0.80;;;11.00;1.00;;;;;;4997225;28;20395;-83
2023/11/10 11:06:18;;;;;;;1.40;0.90;;;11.80;1.00;;;;;;4999165;28;20402;-82
2023/11/10 11:08:43;;;;;;;1.92;0.70;;;12.30;1.00;;;;;;4996289;28;20449;-83
2023/11/10 11:11:29;;;;;;;1.73;0.80;;;12.90;1.00;;;;;;4996115;28;20430;-83
2023/11/10 11:13:55;;;;;;;1.55;0.85;;;12.70;1.00;;;;;;4996278;28;20399;-82
2023/11/10 11:16:42;;;;;;;1.40;0.90;;;13.00;1.00;;;;;;4995302;28;20386;-83
2023/11/10 11:19:13;;;;;;;1.63;0.80;;;13.00;1.00;;;;;;5000949;28;20390;-83
2023/11/10 11:21:40;;;;;;;1.10;0.50;;;13.30;1.00;;;;;;4998160;28;20460;-84
2023/11/10 11:24:06;;;;;;;1.20;0.73;;;13.30;1.00;;;;;;5000574;28;20394;-82
2023/11/10 11:26:36;;;;;;;0.90;0.53;;;13.00;1.00;;;;;;4997749;28;20510;-81
2023/11/10 11:29:09;;;;;;;2.70;0.90;;;12.80;1.00;;;;;;4997810;28;20477;-83
2023/11/10 11:31:47;;;;;;;2.65;1.08;;;12.30;1.00;;;;;;4994230;28;20436;-84
2023/11/10 11:34:16;;;;;;;1.48;0.80;;;11.50;1.00;;;;;;4994808;28;20394;-82
2023/11/10 11:36:48;;;;;;;1.90;0.73;;;12.20;1.00;;;;;;5000112;28;20476;-83
2023/11/10 11:39:15;;;;;;;3.38;1.05;;;12.80;1.00;;;;;;4997054;28;20398;-82
2023/11/10 11:41:47;;;;;;;1.40;0.80;;;13.30;1.00;;;;;;4997574;28;20398;-81
2023/11/10 11:44:12;;;;;;;3.37;0.83;;;12.30;1.00;;;;;;5000029;28;20382;-85
2023/11/10 11:46:41;;;;;;;2.40;0.80;;;12.90;1.00;;;;;;5010578;28;20425;-84
2023/11/10 11:49:08;;;;;;;2.10;0.90;;;13.30;1.00;;;;;;5005716;28;20409;-85
2023/11/10 11:51:37;;;;;;;1.33;0.57;;;;;;;;;;5004582;28;20409;-82
2023/11/10 11:54:03;;;;;;;1.50;0.70;;;12.20;1.00;;;;;;5028070;28;20383;-83
2023/11/10 11:56:29;;;;;;;2.20;0.85;;;11.30;1.00;;;;;;5004101;28;20491;-82
2023/11/10 11:58:55;;;;;;;2.10;0.70;;;11.00;1.00;;;;;;5009619;28;20468;-83
2023/11/10 12:01:21;;;;;;;1.50;0.90;;;10.90;1.00;;;;;;5012783;28;20479;-83
2023/11/10 12:03:48;;;;;;;1.30;0.60;;;11.00;1.00;;;;;;5003851;28;20493;-83
2023/11/10 12:06:14;;;;;;;1.83;0.70;;;10.80;1.00;;;;;;4982924;28;20455;-83
2023/11/10 12:08:40;;;;;;;1.67;0.77;;;10.70;1.00;;;;;;5018900;28;20412;-84
2023/11/10 12:11:07;;;;;;;1.13;0.68;;;10.40;1.00;;;;;;5013258;28;20413;-85
2023/11/10 12:13:35;;;;;;;2.75;0.90;;;10.20;1.00;;;;;;5018604;28;20397;-84
2023/11/10 12:16:02;;;;;;;2.75;0.80;;;10.30;1.00;;;;;;5008598;28;20513;-84
2023/11/10 12:18:29;;;;;;;2.00;1.10;;;;;;;;;;5017958;28;20422;-84
2023/11/10 12:20:56;;;;;;;2.15;0.50;;;10.70;1.00;;;;;;5011045;28;20392;-83
2023/11/10 12:23:22;;;;;;;2.50;0.70;;;10.70;1.00;;;;;;5024487;28;20400;-84
2023/11/10 12:25:48;;;;;;;2.50;0.80;;;10.60;1.00;;;;;;5031052;28;20876;-84
2023/11/10 12:28:14;;;;;;;2.00;1.00;;;10.50;1.00;;;;;;5017768;28;20396;-84
2023/11/10 12:30:40;;;;;;;1.40;0.93;;;10.20;1.00;;;;;;5015956;28;20421;-83
2023/11/10 12:33:08;;;;;;;2.20;1.20;;;10.30;1.00;;;;;;5014538;28;20392;-84
2023/11/10 12:35:33;;;;;;;2.73;0.90;;;10.10;1.00;;;;;;5014484;28;20457;-83
2023/11/10 12:38:00;;;;;;;1.90;1.00;;;10.00;1.00;;;;;;5003798;28;20394;-84
2023/11/10 12:40:29;;;;;;;1.60;0.90;;;9.80;1.00;;;;;;5016576;28;20406;-86
2023/11/10 12:42:56;;;;;;;1.60;0.60;;;10.30;1.00;;;;;;5008952;28;20428;-86
2023/11/10 12:45:24;;;;;;;2.70;0.90;;;10.00;1.00;;;;;;5011856;28;20396;-84
2023/11/10 12:47:52;;;;;;;3.87;1.07;;;12.40;1.00;;;;;;5002798;28;20395;-83
2023/11/10 12:50:22;;;;;;;5.75;1.10;;;;;;;;;;5015808;28;20390;-83
2023/11/10 12:52:52;;;;;;;2.83;1.30;;;10.30;1.00;;;;;;5006841;28;20393;-84
2023/11/10 12:55:18;;;;;;;4.10;1.10;;;9.90;1.00;;;;;;5010056;28;20755;-84
2023/11/10 12:57:46;;;;;;;3.00;1.10;;;10.00;1.00;;;;;;5018474;28;20404;-85
2023/11/10 13:00:15;;;;;;;2.60;1.30;;;10.10;1.00;;;;;;5004850;28;20389;-83
2023/11/10 13:02:42;;;;;;;3.50;1.20;;;10.10;1.00;;;;;;5012806;28;20390;-85
2023/11/10 13:05:08;;;;;;;1.60;0.90;;;9.30;1.00;;;;;;5015809;28;20434;-82
2023/11/10 13:07:34;;;;;;;2.17;0.80;;;10.00;1.00;;;;;;5005935;28;20452;-83